KELD/ELD METAR and TAF weather

Enter ICAO airport designator
Station Type Date Time Source
KELD METAR 2019/06/19 02:53 UTC NOAA

KELD 190253Z AUTO 00000KT 10SM CLR 23/22 A2985 RMK AO2 SLP105 T02330222 53005


Station Type Date Time Source
KELD Decoded METAR 2019/06/19 02:53 UTC NOAA

SOUTH ARKANSAS REGIONAL, AR, United States (KELD) 33-13N 092-49W 81M
Jun 18, 2019 - 10:53 PM EDT / 2019.06.19 0253 UTC
Wind: Calm:0
Visibility: 10 mile(s):0
Sky conditions: clear
Temperature: 73.9 F (23.3 C)
Dew Point: 72.0 F (22.2 C)
Relative Humidity: 93%
Pressure (altimeter): 29.85 in. Hg (1010 hPa)
Pressure tendency: 0.01 inches (0.5 hPa) higher than three hours ago
ob: KELD 190253Z AUTO 00000KT 10SM CLR 23/22 A2985 RMK AO2 SLP105 T02330222 53005
cycle: 3

Station Type Date Time Source
KELD TAF 2019/06/18 18:45 UTC NOAA

TAF KELD 181743Z 1818/1918 26008KT P6SM SCT040 BKN080
FM190100 00000KT P6SM FEW250
TEMPO 1910/1913 3SM BR
FM191400 21008KT P6SM SCT040
TEMPO 1914/1916 BKN020

Example: see airport list